Time;durP1;ratioP1;P1;durP2;ratioP2;P2;SDS_P1;SDS_P2;PMS_P1;PMS_P2;Temp;Humidity;BMP_temperature;BMP_pressure;BME280_temperature;BME280_humidity;BME280_pressure;Samples;Min_cycle;Max_cycle;Signal;HPM_P1;HPM_P2
2022/03/29 00:00:42;;;;;;;58.55;25.85;;;;;;;;;;5003880;28;20042;-75
2022/03/29 00:03:08;;;;;;;58.55;25.17;;;;;;;;;;5006873;28;20033;-75
2022/03/29 00:05:35;;;;;;;54.90;26.50;;;;;;;;;;5005768;28;20496;-75
2022/03/29 00:08:01;;;;;;;58.20;27.42;;;;;;;;;;5006522;28;20041;-75
2022/03/29 00:10:26;;;;;;;54.35;26.23;;;;;;;;;;5004194;28;20038;-75
2022/03/29 00:12:53;;;;;;;49.38;25.52;;;;;;;;;;5006025;28;20044;-75
2022/03/29 00:15:20;;;;;;;56.28;26.85;;;;;;;;;;4999478;28;20022;-75
2022/03/29 00:17:47;;;;;;;52.15;25.98;;;;;;;;;;5005485;28;20710;-75
2022/03/29 00:20:16;;;;;;;56.45;27.35;;;;;;;;;;5006486;28;20034;-75
2022/03/29 00:22:42;;;;;;;59.35;25.33;;;;;;;;;;4996670;28;20045;-74
2022/03/29 00:25:08;;;;;;;58.72;26.67;;;;;;;;;;4999033;28;20045;-75
2022/03/29 00:27:36;;;;;;;62.38;27.38;;;;;;;;;;5003498;28;20606;-74
2022/03/29 00:30:04;;;;;;;61.25;26.90;;;;;;;;;;5007425;28;20030;-75
2022/03/29 00:32:29;;;;;;;55.25;26.02;;;;;;;;;;5005211;28;20105;-75
2022/03/29 00:34:54;;;;;;;60.55;26.33;;;;;;;;;;5007464;28;20164;-75
2022/03/29 00:37:20;;;;;;;52.95;25.25;;;;;;;;;;5005315;28;20091;-75
2022/03/29 00:39:45;;;;;;;55.88;25.40;;;;;;;;;;5003196;28;20046;-75
2022/03/29 00:42:10;;;;;;;58.25;25.25;;;;;;;;;;5008869;28;20086;-75
2022/03/29 00:44:38;;;;;;;59.80;25.05;;;;;;;;;;5006134;28;20038;-74
2022/03/29 00:47:04;;;;;;;55.92;25.02;;;;;;;;;;5003154;28;20454;-75
2022/03/29 00:49:29;;;;;;;62.92;28.08;;;;;;;;;;5004118;28;20053;-75
2022/03/29 00:51:58;;;;;;;61.80;26.00;;;;;;;;;;5006450;28;20087;-75
2022/03/29 00:54:24;;;;;;;58.55;25.73;;;;;;;;;;5000273;28;20030;-75
2022/03/29 00:56:50;;;;;;;56.15;26.25;;;;;;;;;;5007037;28;20018;-75
2022/03/29 00:59:17;;;;;;;60.97;28.27;;;;;;;;;;5004048;28;20046;-75
2022/03/29 01:01:43;;;;;;;58.63;25.73;;;;;;;;;;5001143;28;20542;-75
2022/03/29 01:04:09;;;;;;;67.28;26.83;;;;;;;;;;5002220;28;20038;-74
2022/03/29 01:06:37;;;;;;;54.50;24.67;;;;;;;;;;5003560;28;20730;-75
2022/03/29 01:09:02;;;;;;;60.72;26.73;;;;;;;;;;5005066;28;20044;-75
2022/03/29 01:11:28;;;;;;;56.60;25.63;;;;;;;;;;5005053;28;20034;-75
2022/03/29 01:13:54;;;;;;;60.63;25.30;;;;;;;;;;5003641;28;20392;-75
2022/03/29 01:19:09;;;;;;;54.38;25.23;;;;;;;;;;5005721;28;21184;-75
2022/03/29 01:21:38;;;;;;;59.35;25.35;;;;;;;;;;5009615;28;20045;-75
2022/03/29 01:24:05;;;;;;;58.10;26.50;;;;;;;;;;5002906;28;20034;-75
2022/03/29 01:26:31;;;;;;;54.15;25.42;;;;;;;;;;5006213;28;20541;-76
2022/03/29 01:28:57;;;;;;;62.50;25.50;;;;;;;;;;5002166;28;20069;-74
2022/03/29 01:31:24;;;;;;;61.90;27.40;;;;;;;;;;5005528;28;20057;-75
2022/03/29 01:33:49;;;;;;;65.20;26.80;;;;;;;;;;5005700;28;20045;-75
2022/03/29 01:36:15;;;;;;;56.35;24.92;;;;;;;;;;5003958;28;20048;-75
2022/03/29 01:38:40;;;;;;;62.70;27.58;;;;;;;;;;5001289;28;20113;-75
2022/03/29 01:41:06;;;;;;;58.35;25.20;;;;;;;;;;5005278;28;20137;-75
2022/03/29 01:43:34;;;;;;;63.55;25.75;;;;;;;;;;5009190;28;20106;-76
2022/03/29 01:46:00;;;;;;;68.32;26.60;;;;;;;;;;5011458;28;20037;-75
2022/03/29 01:48:26;;;;;;;58.20;25.85;;;;;;;;;;5008985;28;20045;-75
2022/03/29 01:50:51;;;;;;;65.97;25.85;;;;;;;;;;5007541;28;20547;-74
2022/03/29 01:53:28;;;;;;;58.17;26.80;;;;;;;;;;5006852;28;20053;-75
2022/03/29 01:55:58;;;;;;;62.67;28.30;;;;;;;;;;5010980;28;20044;-75
2022/03/29 01:58:24;;;;;;;56.97;25.90;;;;;;;;;;4999796;28;20038;-75
2022/03/29 02:00:50;;;;;;;65.72;27.15;;;;;;;;;;5008415;28;20041;-75
2022/03/29 02:03:15;;;;;;;57.88;26.13;;;;;;;;;;5011479;28;20045;-75
2022/03/29 02:05:41;;;;;;;63.30;25.90;;;;;;;;;;5006381;28;20024;-75
2022/03/29 02:08:07;;;;;;;63.88;26.30;;;;;;;;;;5007216;28;20038;-75
2022/03/29 02:10:32;;;;;;;61.17;26.92;;;;;;;;;;5002766;28;20036;-75
2022/03/29 02:12:58;;;;;;;59.17;25.58;;;;;;;;;;5008449;28;20357;-75
2022/03/29 02:15:23;;;;;;;62.35;26.70;;;;;;;;;;5005351;28;20129;-75
2022/03/29 02:17:49;;;;;;;62.85;26.70;;;;;;;;;;5005265;28;20022;-75
2022/03/29 02:20:15;;;;;;;63.55;26.95;;;;;;;;;;5007855;28;20034;-75
2022/03/29 02:22:41;;;;;;;60.15;25.35;;;;;;;;;;5007093;28;20060;-75
2022/03/29 02:25:07;;;;;;;61.28;26.30;;;;;;;;;;5006407;28;21147;-74
2022/03/29 02:27:32;;;;;;;65.43;26.80;;;;;;;;;;5011606;28;20059;-75
2022/03/29 02:29:58;;;;;;;54.25;24.33;;;;;;;;;;5005556;28;20454;-74
2022/03/29 02:32:23;;;;;;;60.97;24.25;;;;;;;;;;5005941;28;20042;-75
2022/03/29 02:34:48;;;;;;;56.42;24.38;;;;;;;;;;5008104;28;20030;-75
2022/03/29 02:37:14;;;;;;;60.25;25.55;;;;;;;;;;5006569;28;20042;-75
2022/03/29 02:39:40;;;;;;;57.50;26.88;;;;;;;;;;5007948;28;20069;-75
2022/03/29 02:42:06;;;;;;;66.25;26.92;;;;;;;;;;5008545;28;20022;-75
2022/03/29 02:44:32;;;;;;;67.82;27.10;;;;;;;;;;5005328;28;20330;-75
2022/03/29 02:46:58;;;;;;;60.08;26.60;;;;;;;;;;5009520;28;20088;-75
2022/03/29 02:49:24;;;;;;;64.53;26.23;;;;;;;;;;5008602;28;20353;-75
2022/03/29 02:51:50;;;;;;;62.00;26.38;;;;;;;;;;5007981;28;20120;-74
2022/03/29 02:54:16;;;;;;;60.97;26.90;;;;;;;;;;5003820;28;20128;-75
2022/03/29 02:56:41;;;;;;;59.50;26.38;;;;;;;;;;5002476;28;20060;-75
2022/03/29 02:59:08;;;;;;;68.88;26.15;;;;;;;;;;5011335;28;20868;-75
2022/03/29 03:01:33;;;;;;;61.17;26.02;;;;;;;;;;5011978;28;20527;-75
2022/03/29 03:03:58;;;;;;;58.97;27.13;;;;;;;;;;5008158;28;20048;-75
2022/03/29 03:06:24;;;;;;;57.28;24.35;;;;;;;;;;5005962;28;20530;-75
2022/03/29 03:08:50;;;;;;;60.22;26.15;;;;;;;;;;5008682;28;20032;-75
2022/03/29 03:11:15;;;;;;;58.78;24.42;;;;;;;;;;5007774;28;20038;-74
2022/03/29 03:13:40;;;;;;;58.88;24.50;;;;;;;;;;5008846;28;20133;-75
2022/03/29 03:16:06;;;;;;;62.95;26.25;;;;;;;;;;5005290;28;20044;-75
2022/03/29 03:18:32;;;;;;;65.30;26.00;;;;;;;;;;5005472;28;20041;-75
2022/03/29 03:20:58;;;;;;;57.55;24.63;;;;;;;;;;5004833;28;20032;-75
2022/03/29 03:23:24;;;;;;;63.15;26.48;;;;;;;;;;5003073;28;20038;-75
2022/03/29 03:25:50;;;;;;;53.25;24.45;;;;;;;;;;5006424;28;20038;-75
2022/03/29 03:28:15;;;;;;;52.53;23.83;;;;;;;;;;5005836;28;20045;-75
2022/03/29 03:30:41;;;;;;;63.53;26.05;;;;;;;;;;5005149;28;20513;-75
2022/03/29 03:33:06;;;;;;;54.50;24.40;;;;;;;;;;5005029;28;20476;-75
2022/03/29 03:35:32;;;;;;;57.10;24.80;;;;;;;;;;5010540;28;20025;-75
2022/03/29 03:37:57;;;;;;;65.68;26.15;;;;;;;;;;5009237;28;20041;-75
2022/03/29 03:40:23;;;;;;;60.55;25.83;;;;;;;;;;5005767;28;20034;-75
2022/03/29 03:42:48;;;;;;;56.20;23.98;;;;;;;;;;5005335;28;20037;-75
2022/03/29 03:45:13;;;;;;;62.85;24.35;;;;;;;;;;5006217;28;20985;-75
2022/03/29 03:47:39;;;;;;;56.13;24.17;;;;;;;;;;5008704;28;20028;-75
2022/03/29 03:50:06;;;;;;;60.90;24.30;;;;;;;;;;5007553;28;20369;-75
2022/03/29 03:52:31;;;;;;;57.90;25.10;;;;;;;;;;5006029;28;20041;-75
2022/03/29 03:54:56;;;;;;;57.28;24.17;;;;;;;;;;5008617;28;20033;-75
2022/03/29 03:57:22;;;;;;;57.13;24.20;;;;;;;;;;5008004;28;20064;-75
2022/03/29 03:59:48;;;;;;;50.45;23.30;;;;;;;;;;5008327;28;20396;-75
2022/03/29 04:02:17;;;;;;;61.50;24.17;;;;;;;;;;5010670;28;20045;-74
2022/03/29 04:04:42;;;;;;;55.78;23.92;;;;;;;;;;5006443;28;20050;-75
2022/03/29 04:07:08;;;;;;;56.83;23.17;;;;;;;;;;5005493;28;20045;-75
2022/03/29 04:09:38;;;;;;;54.85;22.40;;;;;;;;;;5005075;28;20041;-75
2022/03/29 04:12:05;;;;;;;50.05;21.63;;;;;;;;;;5003945;28;20036;-75
2022/03/29 04:14:31;;;;;;;52.97;22.33;;;;;;;;;;4981534;28;20038;-75
2022/03/29 04:16:56;;;;;;;53.80;21.83;;;;;;;;;;4977515;28;20038;-75
2022/03/29 04:19:22;;;;;;;46.92;21.40;;;;;;;;;;4984748;28;20456;-74
2022/03/29 04:21:47;;;;;;;51.92;23.33;;;;;;;;;;4982109;28;20034;-74
2022/03/29 04:24:13;;;;;;;50.00;21.90;;;;;;;;;;4980054;28;20098;-74
2022/03/29 04:26:38;;;;;;;56.72;22.42;;;;;;;;;;5006756;28;20029;-75
2022/03/29 04:29:04;;;;;;;55.30;21.58;;;;;;;;;;4986298;28;20126;-75
2022/03/29 04:31:29;;;;;;;52.40;22.45;;;;;;;;;;4999797;28;20495;-75
2022/03/29 04:33:55;;;;;;;46.45;20.85;;;;;;;;;;5006904;28;20045;-74
2022/03/29 04:36:20;;;;;;;56.85;23.48;;;;;;;;;;5008025;28;20057;-74
2022/03/29 04:38:45;;;;;;;56.33;22.02;;;;;;;;;;5006144;28;20450;-74
2022/03/29 04:41:11;;;;;;;56.50;22.85;;;;;;;;;;5008243;28;20036;-75
2022/03/29 04:43:36;;;;;;;54.03;22.58;;;;;;;;;;5010249;28;20044;-74
2022/03/29 04:46:02;;;;;;;55.00;24.17;;;;;;;;;;5005596;28;20065;-74
2022/03/29 04:48:28;;;;;;;58.88;24.33;;;;;;;;;;5005685;28;20038;-74
2022/03/29 04:50:54;;;;;;;52.67;23.20;;;;;;;;;;5008078;28;20040;-74
2022/03/29 04:53:19;;;;;;;52.25;21.55;;;;;;;;;;5006045;28;20116;-75
2022/03/29 04:55:44;;;;;;;51.00;21.38;;;;;;;;;;5004696;28;20534;-76
2022/03/29 04:58:10;;;;;;;56.13;22.20;;;;;;;;;;5003520;28;20037;-76
2022/03/29 05:00:35;;;;;;;50.10;20.80;;;;;;;;;;5005584;28;20411;-76
2022/03/29 05:03:01;;;;;;;52.47;22.50;;;;;;;;;;5006534;28;20096;-77
2022/03/29 05:05:26;;;;;;;49.15;20.33;;;;;;;;;;5008907;28;20096;-76
2022/03/29 05:07:52;;;;;;;53.40;20.88;;;;;;;;;;5006965;28;20041;-76
2022/03/29 05:10:17;;;;;;;46.55;19.23;;;;;;;;;;4998869;28;20545;-76
2022/03/29 05:12:45;;;;;;;45.58;20.35;;;;;;;;;;4998015;28;20404;-76
2022/03/29 05:15:12;;;;;;;50.00;20.98;;;;;;;;;;4997536;28;20034;-76
2022/03/29 05:17:38;;;;;;;44.38;20.60;;;;;;;;;;4999731;28;20068;-76
2022/03/29 05:20:05;;;;;;;52.42;21.33;;;;;;;;;;5005005;28;20038;-76
2022/03/29 05:22:30;;;;;;;52.72;20.58;;;;;;;;;;5002507;28;20045;-76
2022/03/29 05:24:56;;;;;;;49.13;20.13;;;;;;;;;;5008855;28;20030;-77
2022/03/29 05:27:21;;;;;;;49.28;19.85;;;;;;;;;;5010890;28;20676;-76
2022/03/29 05:29:46;;;;;;;46.95;21.15;;;;;;;;;;5008885;28;20030;-76
2022/03/29 05:32:14;;;;;;;45.70;19.63;;;;;;;;;;5010344;28;20133;-76
2022/03/29 05:34:39;;;;;;;52.88;20.10;;;;;;;;;;5010583;28;20687;-77
2022/03/29 05:37:04;;;;;;;53.78;23.35;;;;;;;;;;5010296;28;20052;-76
2022/03/29 05:39:30;;;;;;;56.90;22.27;;;;;;;;;;5009947;28;20052;-76
2022/03/29 05:41:55;;;;;;;46.58;20.90;;;;;;;;;;5007492;28;20074;-76
2022/03/29 05:44:20;;;;;;;54.30;21.75;;;;;;;;;;5005946;28;20033;-75
2022/03/29 05:49:30;;;;;;;46.20;20.00;;;;;;;;;;5009034;28;20045;-74
2022/03/29 05:51:56;;;;;;;49.40;22.00;;;;;;;;;;5010076;28;20029;-74
2022/03/29 05:54:21;;;;;;;51.55;20.70;;;;;;;;;;5008735;28;20029;-75
2022/03/29 05:56:47;;;;;;;50.45;21.15;;;;;;;;;;5012483;28;20423;-76
2022/03/29 05:59:12;;;;;;;48.88;19.75;;;;;;;;;;5015796;28;20049;-76
2022/03/29 06:01:38;;;;;;;51.50;20.88;;;;;;;;;;5005487;28;20116;-76
2022/03/29 06:04:06;;;;;;;50.38;21.95;;;;;;;;;;5011712;28;20046;-76
2022/03/29 06:06:33;;;;;;;48.72;21.92;;;;;;;;;;4989339;28;20035;-77
2022/03/29 06:08:59;;;;;;;48.83;20.65;;;;;;;;;;5009450;28;20053;-76
2022/03/29 06:11:24;;;;;;;45.03;20.13;;;;;;;;;;5009963;28;20038;-77
2022/03/29 06:13:49;;;;;;;50.75;20.23;;;;;;;;;;5009133;28;20038;-76
2022/03/29 06:16:15;;;;;;;46.45;19.83;;;;;;;;;;5009602;28;20034;-77
2022/03/29 06:18:40;;;;;;;43.92;20.25;;;;;;;;;;5008141;28;20040;-76
2022/03/29 06:21:05;;;;;;;43.40;20.13;;;;;;;;;;5008714;28;20084;-76
2022/03/29 06:23:31;;;;;;;42.53;19.17;;;;;;;;;;5010807;28;20026;-76
2022/03/29 06:25:57;;;;;;;45.28;20.40;;;;;;;;;;5012265;28;20038;-76
2022/03/29 06:28:22;;;;;;;47.28;19.35;;;;;;;;;;5007148;28;20069;-76
2022/03/29 06:30:49;;;;;;;50.55;19.65;;;;;;;;;;5009717;28;20026;-76
2022/03/29 06:33:14;;;;;;;49.30;20.80;;;;;;;;;;5009335;28;20030;-76
2022/03/29 06:35:39;;;;;;;47.25;20.60;;;;;;;;;;5009860;28;20388;-76
2022/03/29 06:38:06;;;;;;;44.13;19.70;;;;;;;;;;4998494;28;20415;-76
2022/03/29 06:40:32;;;;;;;46.30;19.00;;;;;;;;;;4990943;28;20030;-76
2022/03/29 06:42:57;;;;;;;49.67;19.40;;;;;;;;;;4994438;28;20125;-76
2022/03/29 06:45:24;;;;;;;49.72;21.27;;;;;;;;;;5002140;28;20030;-76
2022/03/29 06:47:50;;;;;;;46.92;19.77;;;;;;;;;;4989254;28;20033;-76
2022/03/29 06:50:15;;;;;;;47.47;20.20;;;;;;;;;;4997946;28;20034;-74
2022/03/29 06:52:42;;;;;;;44.00;19.63;;;;;;;;;;4997172;28;20038;-75
2022/03/29 06:55:10;;;;;;;45.60;18.35;;;;;;;;;;4995086;28;20038;-75
2022/03/29 06:57:36;;;;;;;44.22;18.85;;;;;;;;;;5003868;28;20038;-77
2022/03/29 07:00:04;;;;;;;50.58;19.20;;;;;;;;;;5007241;28;20018;-77
2022/03/29 07:02:29;;;;;;;45.35;18.50;;;;;;;;;;5005452;28;20132;-79
2022/03/29 07:04:55;;;;;;;42.63;18.13;;;;;;;;;;5000366;28;20125;-76
2022/03/29 07:07:21;;;;;;;47.45;18.98;;;;;;;;;;5004999;28;20168;-77
2022/03/29 07:12:30;;;;;;;42.67;18.10;;;;;;;;;;5006511;28;20220;-76
2022/03/29 07:14:59;;;;;;;43.33;18.38;;;;;;;;;;5004942;28;20112;-77
2022/03/29 07:17:24;;;;;;;45.22;18.17;;;;;;;;;;5003075;28;20034;-76
2022/03/29 07:19:50;;;;;;;41.25;18.42;;;;;;;;;;5006206;28;20038;-74
2022/03/29 07:22:16;;;;;;;40.72;18.42;;;;;;;;;;5004943;28;20042;-77
2022/03/29 07:24:42;;;;;;;35.13;16.83;;;;;;;;;;4994195;28;20113;-74
2022/03/29 07:27:08;;;;;;;41.05;19.02;;;;;;;;;;5005211;28;20132;-73
2022/03/29 07:29:34;;;;;;;55.60;20.42;;;;;;;;;;5005621;28;20069;-77
2022/03/29 07:31:59;;;;;;;47.97;19.85;;;;;;;;;;4997743;28;20585;-76
2022/03/29 07:34:24;;;;;;;43.08;18.08;;;;;;;;;;5004868;28;20042;-76
2022/03/29 07:36:51;;;;;;;48.65;18.50;;;;;;;;;;5006689;28;20040;-76
2022/03/29 07:39:17;;;;;;;39.95;16.92;;;;;;;;;;5006149;28;20076;-79
2022/03/29 07:41:43;;;;;;;41.05;19.45;;;;;;;;;;5006929;28;20018;-77
2022/03/29 07:44:08;;;;;;;45.20;18.60;;;;;;;;;;5015364;28;20036;-75
2022/03/29 07:46:34;;;;;;;48.17;19.45;;;;;;;;;;5007973;28;20427;-78
2022/03/29 07:48:59;;;;;;;43.30;19.80;;;;;;;;;;5004653;28;20526;-77
2022/03/29 07:51:24;;;;;;;41.80;18.42;;;;;;;;;;5005777;28;20042;-78
2022/03/29 07:53:50;;;;;;;44.72;17.60;;;;;;;;;;5007015;28;20464;-75
2022/03/29 07:56:15;;;;;;;45.15;17.40;;;;;;;;;;5002414;28;20062;-75
2022/03/29 07:58:41;;;;;;;42.90;17.00;;;;;;;;;;5004843;28;20096;-77
2022/03/29 08:01:06;;;;;;;39.50;17.25;;;;;;;;;;5005220;28;20057;-76
2022/03/29 08:03:34;;;;;;;46.83;18.52;;;;;;;;;;5018839;28;20467;-78
2022/03/29 08:06:02;;;;;;;51.38;18.80;;;;;;;;;;5014114;28;20109;-78
2022/03/29 08:08:28;;;;;;;49.58;19.33;;;;;;;;;;4999483;28;20034;-78
2022/03/29 08:10:54;;;;;;;45.83;19.48;;;;;;;;;;4996028;28;20030;-77
2022/03/29 08:13:20;;;;;;;41.97;17.88;;;;;;;;;;5001988;28;20041;-78
2022/03/29 08:15:48;;;;;;;43.47;20.63;;;;;;;;;;5005737;28;20041;-76
2022/03/29 08:18:15;;;;;;;49.20;19.67;;;;;;;;;;5005644;28;20064;-76
2022/03/29 08:20:41;;;;;;;52.50;20.77;;;;;;;;;;5004819;28;20026;-74
2022/03/29 08:23:07;;;;;;;50.78;20.85;;;;;;;;;;5002421;28;20154;-75
2022/03/29 08:25:35;;;;;;;44.80;18.58;;;;;;;;;;4983910;28;20042;-76
2022/03/29 08:28:01;;;;;;;39.75;18.67;;;;;;;;;;4995594;28;20034;-75
2022/03/29 08:30:29;;;;;;;41.90;19.05;;;;;;;;;;5002688;28;20041;-77
2022/03/29 08:32:54;;;;;;;44.00;19.98;;;;;;;;;;5006843;28;20061;-74
2022/03/29 08:35:20;;;;;;;46.13;20.25;;;;;;;;;;5006188;28;20070;-76
2022/03/29 08:37:48;;;;;;;47.58;20.10;;;;;;;;;;5003040;28;20037;-78
2022/03/29 08:40:16;;;;;;;42.15;19.63;;;;;;;;;;5004631;28;20381;-81
2022/03/29 08:42:46;;;;;;;47.10;19.73;;;;;;;;;;5005555;28;20119;-77
2022/03/29 08:45:16;;;;;;;44.80;19.67;;;;;;;;;;5001490;28;20026;-78
2022/03/29 08:47:44;;;;;;;49.78;20.17;;;;;;;;;;5001493;28;20048;-78
2022/03/29 08:50:11;;;;;;;46.35;20.65;;;;;;;;;;5003042;28;20026;-77
2022/03/29 08:52:39;;;;;;;47.58;21.77;;;;;;;;;;5007898;28;20875;-78
2022/03/29 08:55:06;;;;;;;46.45;21.83;;;;;;;;;;5009668;28;20042;-76
2022/03/29 08:57:32;;;;;;;50.85;22.92;;;;;;;;;;5002213;28;20057;-73
2022/03/29 08:59:58;;;;;;;51.78;23.50;;;;;;;;;;5009783;28;20506;-73
2022/03/29 09:02:24;;;;;;;56.85;25.13;;;;;;;;;;5007237;28;20042;-73
2022/03/29 09:05:07;;;;;;;56.47;25.60;;;;;;;;;;4995853;28;20560;-75
2022/03/29 09:07:56;;;;;;;52.80;24.48;;;;;;;;;;4996792;28;20052;-75
2022/03/29 09:10:37;;;;;;;54.75;22.88;;;;;;;;;;5005986;28;20180;-76
2022/03/29 09:13:17;;;;;;;44.53;21.27;;;;;;;;;;5002092;28;20038;-73
2022/03/29 09:15:42;;;;;;;45.67;20.45;;;;;;;;;;4997590;28;20041;-74
2022/03/29 09:18:09;;;;;;;48.08;22.25;;;;;;;;;;4995155;28;20030;-72
2022/03/29 09:20:34;;;;;;;48.83;21.70;;;;;;;;;;4991090;28;20058;-72
2022/03/29 09:23:00;;;;;;;48.85;21.73;;;;;;;;;;5002747;28;24102;-72
2022/03/29 09:25:35;;;;;;;48.75;22.25;;;;;;;;;;4999794;28;20046;-77
2022/03/29 09:28:10;;;;;;;58.58;22.27;;;;;;;;;;5008094;28;20045;-73
2022/03/29 09:30:41;;;;;;;51.63;21.55;;;;;;;;;;5022126;28;20410;-76
2022/03/29 09:33:19;;;;;;;47.25;21.98;;;;;;;;;;5005021;28;20069;-75
2022/03/29 09:36:07;;;;;;;42.40;20.52;;;;;;;;;;5009110;28;20026;-75
2022/03/29 09:38:37;;;;;;;50.63;21.48;;;;;;;;;;5007631;28;20049;-73
2022/03/29 09:41:05;;;;;;;48.15;22.38;;;;;;;;;;5003371;28;20037;-75
2022/03/29 09:43:31;;;;;;;47.25;22.10;;;;;;;;;;5003110;28;20060;-76
2022/03/29 09:46:03;;;;;;;46.85;23.25;;;;;;;;;;5007397;28;20056;-76
2022/03/29 09:48:37;;;;;;;49.70;22.52;;;;;;;;;;5003941;28;20034;-77
2022/03/29 09:51:09;;;;;;;44.60;20.67;;;;;;;;;;5004960;28;20030;-76
2022/03/29 09:53:47;;;;;;;44.95;21.85;;;;;;;;;;4997598;28;20054;-76
2022/03/29 09:56:19;;;;;;;48.22;21.25;;;;;;;;;;5000240;28;20149;-75
2022/03/29 09:58:45;;;;;;;45.63;23.67;;;;;;;;;;4994001;28;20165;-76
2022/03/29 10:01:25;;;;;;;49.90;21.98;;;;;;;;;;4997018;28;20096;-77
2022/03/29 10:03:54;;;;;;;48.55;23.67;;;;;;;;;;5006993;28;20120;-77
2022/03/29 10:06:22;;;;;;;51.13;23.27;;;;;;;;;;5007533;28;20622;-76
2022/03/29 10:11:37;;;;;;;48.75;23.48;;;;;;;;;;5007751;28;20056;-77
2022/03/29 10:14:04;;;;;;;54.22;23.58;;;;;;;;;;4991908;28;20053;-75
2022/03/29 10:16:30;;;;;;;52.25;22.67;;;;;;;;;;4989918;28;20035;-75
2022/03/29 10:18:55;;;;;;;50.15;23.08;;;;;;;;;;4989760;28;20046;-78
2022/03/29 10:21:21;;;;;;;50.92;24.17;;;;;;;;;;4985734;28;20041;-76
2022/03/29 10:23:51;;;;;;;53.35;23.55;;;;;;;;;;5012884;28;20029;-76
2022/03/29 10:26:21;;;;;;;47.35;23.40;;;;;;;;;;5005537;28;20053;-74
2022/03/29 10:28:50;;;;;;;54.70;22.38;;;;;;;;;;5016819;28;20052;-74
2022/03/29 10:31:33;;;;;;;51.20;23.42;;;;;;;;;;5007794;28;20030;-74
2022/03/29 10:34:26;;;;;;;49.22;23.92;;;;;;;;;;5005176;28;20046;-79
2022/03/29 10:37:12;;;;;;;47.83;21.87;;;;;;;;;;5007875;28;20038;-77
2022/03/29 10:39:54;;;;;;;51.00;24.83;;;;;;;;;;5007825;28;20049;-75
2022/03/29 10:42:25;;;;;;;55.80;24.80;;;;;;;;;;5008180;28;20030;-75
2022/03/29 10:45:03;;;;;;;52.17;23.92;;;;;;;;;;5014623;28;20539;-75
2022/03/29 10:47:30;;;;;;;56.63;23.70;;;;;;;;;;4989445;28;20046;-75
2022/03/29 10:49:55;;;;;;;51.63;24.30;;;;;;;;;;5007153;28;20084;-75
2022/03/29 10:52:21;;;;;;;55.17;25.27;;;;;;;;;;5002931;28;20045;-75
2022/03/29 10:54:47;;;;;;;56.13;25.30;;;;;;;;;;5007591;28;20038;-75
2022/03/29 10:57:26;;;;;;;53.22;23.98;;;;;;;;;;5006366;28;20048;-75
2022/03/29 10:59:58;;;;;;;56.88;25.05;;;;;;;;;;4999534;28;20022;-75
2022/03/29 11:02:25;;;;;;;54.88;25.75;;;;;;;;;;5011413;28;20523;-75
2022/03/29 11:05:07;;;;;;;55.80;26.38;;;;;;;;;;5014709;28;20042;-75
2022/03/29 11:07:38;;;;;;;60.10;26.20;;;;;;;;;;5005724;28;20038;-75
2022/03/29 11:10:09;;;;;;;51.63;25.15;;;;;;;;;;5003598;28;20045;-75
2022/03/29 11:12:51;;;;;;;59.08;25.80;;;;;;;;;;4987652;28;20503;-75
2022/03/29 11:15:27;;;;;;;59.50;24.48;;;;;;;;;;5005922;28;20029;-75
2022/03/29 11:17:56;;;;;;;55.90;24.48;;;;;;;;;;4999916;28;20156;-75
2022/03/29 11:20:32;;;;;;;57.97;25.08;;;;;;;;;;4996237;28;20423;-75
2022/03/29 11:22:59;;;;;;;54.95;26.50;;;;;;;;;;5000408;28;20041;-75
2022/03/29 11:25:25;;;;;;;54.15;24.70;;;;;;;;;;4998573;28;20033;-75
2022/03/29 11:27:51;;;;;;;53.03;25.02;;;;;;;;;;4990683;28;20570;-75
2022/03/29 11:30:17;;;;;;;54.15;24.40;;;;;;;;;;5006582;28;20439;-73
2022/03/29 11:32:45;;;;;;;54.80;26.35;;;;;;;;;;4989600;28;20037;-75
2022/03/29 11:35:12;;;;;;;50.28;24.73;;;;;;;;;;4994233;28;20053;-72
2022/03/29 11:37:43;;;;;;;56.72;25.85;;;;;;;;;;4995337;28;20132;-71
2022/03/29 11:40:14;;;;;;;53.50;26.02;;;;;;;;;;5003577;28;20061;-70
2022/03/29 11:42:50;;;;;;;55.78;25.88;;;;;;;;;;4997956;28;20068;-74
2022/03/29 11:45:18;;;;;;;57.03;27.63;;;;;;;;;;4998168;28;20063;-75
2022/03/29 11:47:59;;;;;;;48.20;23.67;;;;;;;;;;4996403;28;20022;-73
2022/03/29 11:50:52;;;;;;;48.85;23.63;;;;;;;;;;5001867;28;20041;-71
2022/03/29 11:53:23;;;;;;;50.80;23.38;;;;;;;;;;4998195;28;20670;-70
2022/03/29 11:55:59;;;;;;;43.00;20.92;;;;;;;;;;4999043;28;20988;-74
2022/03/29 11:58:29;;;;;;;44.75;21.00;;;;;;;;;;4984958;28;20476;-75
2022/03/29 12:01:03;;;;;;;41.65;20.33;;;;;;;;;;4995103;28;20559;-75
2022/03/29 12:03:34;;;;;;;36.70;18.85;;;;;;;;;;5017580;28;20041;-77
2022/03/29 12:06:03;;;;;;;37.63;18.67;;;;;;;;;;5005989;28;20029;-81
2022/03/29 12:08:42;;;;;;;37.65;19.15;;;;;;;;;;5001333;28;20045;-72
2022/03/29 12:11:12;;;;;;;34.90;18.95;;;;;;;;;;5002986;28;20038;-74
2022/03/29 12:13:38;;;;;;;37.15;16.95;;;;;;;;;;4998358;28;20159;-75
2022/03/29 12:16:24;;;;;;;33.90;15.00;;;;;;;;;;5003232;28;20034;-73
2022/03/29 12:18:50;;;;;;;32.67;14.93;;;;;;;;;;5003925;28;20450;-75
2022/03/29 12:21:22;;;;;;;38.95;17.92;;;;;;;;;;4999062;28;20026;-74
2022/03/29 12:23:49;;;;;;;37.85;19.08;;;;;;;;;;4993516;28;20427;-74
2022/03/29 12:26:17;;;;;;;40.10;20.00;;;;;;;;;;5003605;28;20042;-73
2022/03/29 12:28:45;;;;;;;44.80;20.95;;;;;;;;;;5005460;28;20148;-82
2022/03/29 12:31:13;;;;;;;42.47;19.80;;;;;;;;;;5000615;28;20029;-77
2022/03/29 12:33:39;;;;;;;40.67;19.58;;;;;;;;;;5004761;28;20062;-73
2022/03/29 12:36:06;;;;;;;38.28;20.33;;;;;;;;;;5002708;28;20041;-73
2022/03/29 12:38:46;;;;;;;39.40;19.27;;;;;;;;;;4996478;28;20053;-72
2022/03/29 12:41:13;;;;;;;42.15;20.73;;;;;;;;;;4974641;28;20096;-75
2022/03/29 12:43:40;;;;;;;37.05;19.63;;;;;;;;;;4985022;28;20046;-74
2022/03/29 12:46:09;;;;;;;39.88;18.95;;;;;;;;;;4985134;28;20041;-73
2022/03/29 12:48:37;;;;;;;41.85;21.35;;;;;;;;;;5015061;28;20041;-76
2022/03/29 12:51:05;;;;;;;47.25;20.25;;;;;;;;;;4977276;28;20174;-75
2022/03/29 12:53:30;;;;;;;56.90;25.08;;;;;;;;;;4970906;28;20544;-75
2022/03/29 12:55:57;;;;;;;55.28;24.60;;;;;;;;;;4964853;28;20049;-74
2022/03/29 12:58:35;;;;;;;45.03;22.55;;;;;;;;;;4983123;28;20080;-73
2022/03/29 13:01:01;;;;;;;49.80;25.13;;;;;;;;;;4975535;28;20218;-75
2022/03/29 13:03:27;;;;;;;56.67;25.98;;;;;;;;;;4987664;28;20049;-77
2022/03/29 13:05:52;;;;;;;50.88;25.88;;;;;;;;;;4987709;28;20010;-72
2022/03/29 13:08:21;;;;;;;47.58;23.88;;;;;;;;;;4985430;28;20866;-73
2022/03/29 13:10:50;;;;;;;52.03;24.05;;;;;;;;;;4996886;28;20029;-76
2022/03/29 13:13:24;;;;;;;46.80;23.50;;;;;;;;;;5004539;28;20484;-73
2022/03/29 13:16:05;;;;;;;54.78;22.98;;;;;;;;;;4992414;28;20030;-73
2022/03/29 13:18:33;;;;;;;52.03;25.05;;;;;;;;;;4999874;28;20080;-73
2022/03/29 13:21:08;;;;;;;53.58;24.67;;;;;;;;;;5005420;28;20026;-73
2022/03/29 13:23:37;;;;;;;47.00;22.38;;;;;;;;;;4989982;28;20127;-73
2022/03/29 13:26:04;;;;;;;47.53;23.92;;;;;;;;;;4989894;28;20038;-75
2022/03/29 13:28:29;;;;;;;49.88;24.88;;;;;;;;;;4995585;28;20034;-74
2022/03/29 13:30:55;;;;;;;53.28;23.90;;;;;;;;;;4987649;28;20630;-73
2022/03/29 13:33:20;;;;;;;47.10;23.58;;;;;;;;;;5000349;28;20061;-73
2022/03/29 13:35:50;;;;;;;50.10;23.88;;;;;;;;;;5007407;28;20466;-76
2022/03/29 13:38:16;;;;;;;47.03;23.13;;;;;;;;;;5006297;28;20038;-75
2022/03/29 13:40:41;;;;;;;42.22;21.17;;;;;;;;;;5009436;28;20830;-73
2022/03/29 13:43:06;;;;;;;49.08;21.55;;;;;;;;;;5004895;28;20061;-73
2022/03/29 13:45:32;;;;;;;49.03;23.00;;;;;;;;;;5007840;28;20053;-77
2022/03/29 13:47:58;;;;;;;46.80;23.60;;;;;;;;;;5015600;28;20056;-77
2022/03/29 13:50:24;;;;;;;48.17;22.65;;;;;;;;;;5000555;28;20033;-77
2022/03/29 13:52:49;;;;;;;45.80;22.88;;;;;;;;;;4994668;28;20030;-77
2022/03/29 13:55:15;;;;;;;45.28;23.00;;;;;;;;;;5001970;28;20041;-77
2022/03/29 13:57:40;;;;;;;42.10;21.08;;;;;;;;;;5004140;28;20042;-77
2022/03/29 14:00:08;;;;;;;48.83;23.45;;;;;;;;;;5005239;28;20076;-77
2022/03/29 14:02:34;;;;;;;44.33;21.60;;;;;;;;;;5005584;28;20049;-77
2022/03/29 14:05:00;;;;;;;46.00;22.05;;;;;;;;;;5001277;28;20061;-77
2022/03/29 14:07:26;;;;;;;43.47;19.65;;;;;;;;;;5006741;28;20034;-77
2022/03/29 14:09:51;;;;;;;43.50;20.45;;;;;;;;;;5006392;28;20037;-77
2022/03/29 14:12:17;;;;;;;39.58;18.98;;;;;;;;;;4994497;28;20036;-77
2022/03/29 14:14:42;;;;;;;44.75;19.45;;;;;;;;;;5007404;28;20029;-72
2022/03/29 14:17:07;;;;;;;40.72;19.23;;;;;;;;;;5006948;28;20042;-72
2022/03/29 14:19:33;;;;;;;42.33;20.00;;;;;;;;;;5003027;28;20092;-76
2022/03/29 14:21:58;;;;;;;38.28;19.38;;;;;;;;;;5014086;28;20037;-75
2022/03/29 14:24:24;;;;;;;37.95;20.05;;;;;;;;;;4995904;28;20426;-75
2022/03/29 14:26:52;;;;;;;40.92;19.50;;;;;;;;;;5001043;28;20038;-75
2022/03/29 14:29:17;;;;;;;40.13;19.23;;;;;;;;;;5000822;28;20518;-75